Time;durP1;ratioP1;P1;durP2;ratioP2;P2;SDS_P1;SDS_P2;PMS_P1;PMS_P2;Temp;Humidity;BMP_temperature;BMP_pressure;BME280_temperature;BME280_humidity;BME280_pressure;Samples;Min_cycle;Max_cycle;Signal;HPM_P1;HPM_P2
2023/05/25 00:01:03;;;;;;;25.43;22.83;;;19.90;95.90;;;;;;5057333;28;20310;-68
2023/05/25 00:03:30;;;;;;;25.83;22.97;;;19.90;95.90;;;;;;5051087;28;20288;-68
2023/05/25 00:06:01;;;;;;;25.17;22.50;;;19.90;95.90;;;;;;5047413;28;20223;-68
2023/05/25 00:08:28;;;;;;;26.80;23.13;;;19.90;96.00;;;;;;5056128;28;20209;-68
2023/05/25 00:10:56;;;;;;;27.80;24.53;;;19.90;96.10;;;;;;5053101;28;20201;-68
2023/05/25 00:13:23;;;;;;;25.37;22.23;;;19.90;96.20;;;;;;5059869;28;20186;-68
2023/05/25 00:15:50;;;;;;;25.20;22.33;;;20.00;96.30;;;;;;5058009;28;20242;-68
2023/05/25 00:18:17;;;;;;;26.23;23.30;;;20.00;96.30;;;;;;5065101;28;20222;-68
2023/05/25 00:20:46;;;;;;;27.43;24.47;;;20.00;96.40;;;;;;5055079;28;20221;-68
2023/05/25 00:23:13;;;;;;;27.67;23.90;;;20.00;96.40;;;;;;5061210;28;20221;-68
2023/05/25 00:25:41;;;;;;;27.63;24.47;;;20.00;96.40;;;;;;5056191;28;20213;-68
2023/05/25 00:28:10;;;;;;;33.00;25.07;;;20.10;96.50;;;;;;5060132;28;20202;-68
2023/05/25 00:30:37;;;;;;;25.80;23.10;;;20.10;96.60;;;;;;5064523;28;20200;-68
2023/05/25 00:33:05;;;;;;;25.50;22.90;;;20.10;96.60;;;;;;5063046;28;20198;-68
2023/05/25 00:35:32;;;;;;;28.77;23.87;;;20.10;96.60;;;;;;5086495;28;20214;-68
2023/05/25 00:37:59;;;;;;;27.07;22.70;;;20.10;96.60;;;;;;5063066;28;20191;-68
2023/05/25 00:40:26;;;;;;;31.77;24.40;;;20.10;96.60;;;;;;5061083;28;20202;-68
2023/05/25 00:42:54;;;;;;;29.37;23.53;;;20.10;96.60;;;;;;5066348;28;20199;-68
2023/05/25 00:45:22;;;;;;;26.63;23.80;;;20.10;96.60;;;;;;5046734;28;20253;-68
2023/05/25 00:47:53;;;;;;;28.83;22.70;;;20.20;96.70;;;;;;5060176;28;20238;-69
2023/05/25 00:50:46;;;;;;;26.43;23.63;;;20.20;96.70;;;;;;5061882;28;20201;-67
2023/05/25 00:53:13;;;;;;;31.50;23.50;;;20.20;96.70;;;;;;5069543;28;20285;-67
2023/05/25 00:55:43;;;;;;;27.00;24.23;;;20.20;96.60;;;;;;5066108;28;20193;-67
2023/05/25 00:58:15;;;;;;;29.50;23.57;;;20.20;96.60;;;;;;5065538;28;20285;-68
2023/05/25 01:00:45;;;;;;;29.07;24.70;;;20.20;96.60;;;;;;5060414;28;20210;-68
2023/05/25 01:03:16;;;;;;;29.13;24.67;;;20.20;96.70;;;;;;5058202;28;20229;-69
2023/05/25 01:05:47;;;;;;;28.53;25.47;;;20.20;96.70;;;;;;5054086;28;20711;-68
2023/05/25 01:08:17;;;;;;;28.87;25.53;;;20.20;96.70;;;;;;5062074;28;20589;-67
2023/05/25 01:10:51;;;;;;;28.27;25.17;;;20.20;96.70;;;;;;5064414;28;20249;-68
2023/05/25 01:13:19;;;;;;;26.83;22.60;;;20.20;96.70;;;;;;5057615;28;20191;-68
2023/05/25 01:15:48;;;;;;;27.60;24.77;;;20.20;96.70;;;;;;5055800;28;20309;-68
2023/05/25 01:18:16;;;;;;;30.30;25.30;;;20.20;96.70;;;;;;5062614;28;20241;-68
2023/05/25 01:21:11;;;;;;;34.60;23.63;;;20.20;96.70;;;;;;5058601;28;20252;-68
2023/05/25 01:24:12;;;;;;;31.90;27.10;;;20.10;96.70;;;;;;5065380;28;20226;-68
2023/05/25 01:26:45;;;;;;;32.93;23.80;;;20.10;96.70;;;;;;5057826;28;20229;-68
2023/05/25 01:29:16;;;;;;;32.60;23.50;;;20.10;96.60;;;;;;5072518;28;20301;-68
2023/05/25 01:31:46;;;;;;;36.20;24.53;;;20.20;96.60;;;;;;5061006;28;20648;-68
2023/05/25 01:34:14;;;;;;;29.73;24.17;;;20.10;96.40;;;;;;5055957;28;20201;-68
2023/05/25 01:36:41;;;;;;;33.27;25.17;;;20.10;96.40;;;;;;5077196;28;20299;-68
2023/05/25 01:39:09;;;;;;;32.37;26.83;;;20.10;96.50;;;;;;5079624;28;20213;-68
2023/05/25 01:41:37;;;;;;;34.43;26.80;;;20.10;96.70;;;;;;5056005;28;20659;-68
2023/05/25 01:44:06;;;;;;;32.40;26.27;;;20.10;96.70;;;;;;5060530;28;20212;-68
2023/05/25 01:46:40;;;;;;;33.60;27.10;;;20.10;96.70;;;;;;5063553;28;20226;-68
2023/05/25 01:49:43;;;;;;;42.60;28.33;;;20.10;96.80;;;;;;5055554;28;20271;-68
2023/05/25 01:52:31;;;;;;;31.40;26.73;;;20.10;96.90;;;;;;5058274;28;20627;-68
2023/05/25 01:55:17;;;;;;;32.90;26.60;;;20.10;96.90;;;;;;5069889;28;20198;-68
2023/05/25 01:57:49;;;;;;;33.90;25.63;;;20.10;96.90;;;;;;5054462;28;20219;-68
2023/05/25 02:00:20;;;;;;;36.37;25.93;;;20.10;96.90;;;;;;5051813;28;20210;-68
2023/05/25 02:02:49;;;;;;;32.43;25.10;;;20.10;97.00;;;;;;5058543;28;20204;-68
2023/05/25 02:05:19;;;;;;;34.03;26.40;;;20.10;97.00;;;;;;5059149;28;20841;-68
2023/05/25 02:07:46;;;;;;;31.07;25.63;;;20.10;97.20;;;;;;5059753;28;20307;-68
2023/05/25 02:10:13;;;;;;;28.53;25.07;;;20.10;97.20;;;;;;5057004;28;20198;-68
2023/05/25 02:12:41;;;;;;;32.33;24.40;;;20.10;97.30;;;;;;5080219;28;20573;-68
2023/05/25 02:15:09;;;;;;;30.00;25.97;;;20.10;97.30;;;;;;5092354;28;20235;-68
2023/05/25 02:17:37;;;;;;;34.73;25.30;;;20.20;97.30;;;;;;5092462;28;20576;-68
2023/05/25 02:20:05;;;;;;;29.53;24.97;;;20.20;97.30;;;;;;5057379;28;20210;-68
2023/05/25 02:22:32;;;;;;;29.83;24.80;;;20.20;97.20;;;;;;5060757;28;20553;-68
2023/05/25 02:24:59;;;;;;;33.23;25.20;;;20.20;97.10;;;;;;5047449;28;20207;-67
2023/05/25 02:27:28;;;;;;;30.00;25.40;;;20.10;97.00;;;;;;5062380;28;20210;-68
2023/05/25 02:29:55;;;;;;;33.70;26.37;;;20.10;96.90;;;;;;5056393;28;20203;-69
2023/05/25 02:32:24;;;;;;;36.33;27.30;;;20.00;96.90;;;;;;5054545;28;20298;-68
2023/05/25 02:34:51;;;;;;;31.63;26.73;;;20.00;97.00;;;;;;5062034;28;20722;-68
2023/05/25 02:37:18;;;;;;;31.13;25.80;;;19.90;97.10;;;;;;5049287;28;20205;-68
2023/05/25 02:39:47;;;;;;;31.67;26.10;;;19.90;97.10;;;;;;5063023;28;20213;-68
2023/05/25 02:42:14;;;;;;;30.13;26.93;;;19.80;97.10;;;;;;5057018;28;20212;-68
2023/05/25 02:44:47;;;;;;;32.63;26.20;;;19.80;97.20;;;;;;5064113;28;20202;-68
2023/05/25 02:47:15;;;;;;;34.73;28.67;;;19.70;97.30;;;;;;5064177;28;20206;-68
2023/05/25 02:49:42;;;;;;;36.80;27.03;;;19.70;97.40;;;;;;5061380;28;20190;-68
2023/05/25 02:52:10;;;;;;;35.93;27.33;;;19.70;97.40;;;;;;5060984;28;20198;-68
2023/05/25 02:54:37;;;;;;;38.20;27.80;;;19.70;97.40;;;;;;5062933;28;20206;-68
2023/05/25 02:57:07;;;;;;;36.27;26.53;;;19.70;97.50;;;;;;5057883;28;20213;-69
2023/05/25 02:59:34;;;;;;;29.00;25.17;;;19.60;97.50;;;;;;5074437;28;20272;-67
2023/05/25 03:02:02;;;;;;;31.17;23.40;;;19.60;97.50;;;;;;5059959;28;20259;-68
2023/05/25 03:04:32;;;;;;;30.37;22.83;;;19.60;97.40;;;;;;5075018;28;20550;-68
2023/05/25 03:07:00;;;;;;;27.60;23.63;;;19.50;97.40;;;;;;5053060;28;20246;-68
2023/05/25 03:09:28;;;;;;;34.13;23.67;;;19.50;97.40;;;;;;5062582;28;20640;-69
2023/05/25 03:11:55;;;;;;;26.73;22.50;;;19.50;97.30;;;;;;5059466;28;20297;-68
2023/05/25 03:14:23;;;;;;;29.10;22.27;;;19.40;97.30;;;;;;5064368;28;20246;-68
2023/05/25 03:16:55;;;;;;;31.50;23.67;;;19.40;97.20;;;;;;5061676;28;20229;-68
2023/05/25 03:19:23;;;;;;;33.73;22.37;;;19.40;97.10;;;;;;5059444;28;20209;-68
2023/05/25 03:21:50;;;;;;;32.87;23.70;;;19.30;97.10;;;;;;5059308;28;20202;-68
2023/05/25 03:24:18;;;;;;;28.63;22.70;;;19.30;97.00;;;;;;5056307;28;20209;-68
2023/05/25 03:26:45;;;;;;;25.83;22.13;;;19.30;97.20;;;;;;5056980;28;20656;-68
2023/05/25 03:29:13;;;;;;;28.33;23.67;;;19.20;96.90;;;;;;5063001;28;20302;-67
2023/05/25 03:31:40;;;;;;;29.37;23.50;;;19.20;96.90;;;;;;5065241;28;20198;-68
2023/05/25 03:34:07;;;;;;;30.60;24.37;;;19.10;96.90;;;;;;5056452;28;20303;-68
2023/05/25 03:36:37;;;;;;;31.07;22.37;;;19.10;96.90;;;;;;5078116;28;20539;-68
2023/05/25 03:39:05;;;;;;;30.37;23.30;;;19.00;97.20;;;;;;5088072;28;20233;-68
2023/05/25 03:41:33;;;;;;;29.77;24.13;;;19.00;97.00;;;;;;5058966;28;20636;-68
2023/05/25 03:43:59;;;;;;;37.03;24.23;;;19.00;97.00;;;;;;5060471;28;21041;-68
2023/05/25 03:46:26;;;;;;;26.83;24.03;;;18.90;97.00;;;;;;5054906;28;20199;-68
2023/05/25 03:48:56;;;;;;;28.93;22.63;;;18.90;97.00;;;;;;5081653;28;20270;-68
2023/05/25 03:51:23;;;;;;;27.17;22.73;;;18.90;96.90;;;;;;5052631;28;20266;-68
2023/05/25 03:53:50;;;;;;;28.10;23.57;;;18.80;96.80;;;;;;5057682;28;20583;-68
2023/05/25 03:56:17;;;;;;;32.00;23.87;;;18.80;96.90;;;;;;5069628;28;20217;-67
2023/05/25 03:58:44;;;;;;;29.13;23.23;;;18.80;96.90;;;;;;5060622;28;20197;-68
2023/05/25 04:01:12;;;;;;;32.57;23.60;;;18.80;97.00;;;;;;5050608;28;20674;-68
2023/05/25 04:03:39;;;;;;;27.93;22.67;;;18.80;97.00;;;;;;5057325;28;20206;-68
2023/05/25 04:06:07;;;;;;;26.63;22.17;;;18.80;97.00;;;;;;5057646;28;20270;-68
2023/05/25 04:08:34;;;;;;;30.60;23.03;;;18.80;97.00;;;;;;5056667;28;20680;-68
2023/05/25 04:11:03;;;;;;;31.83;23.10;;;18.80;96.90;;;;;;5058062;28;20206;-68
2023/05/25 04:13:34;;;;;;;23.07;20.50;;;18.80;97.00;;;;;;5061398;28;20205;-68
2023/05/25 04:16:02;;;;;;;25.57;21.10;;;18.80;97.10;;;;;;5056625;28;20236;-68
2023/05/25 04:18:32;;;;;;;25.10;21.07;;;18.80;97.10;;;;;;5056367;28;20630;-68
2023/05/25 04:21:00;;;;;;;26.57;20.90;;;18.90;97.10;;;;;;5052133;28;20216;-67
2023/05/25 04:23:27;;;;;;;22.70;20.30;;;18.90;97.20;;;;;;5044491;28;21290;-68
2023/05/25 04:25:54;;;;;;;22.97;20.57;;;18.90;97.10;;;;;;5050739;28;20205;-68
2023/05/25 04:28:21;;;;;;;23.10;20.07;;;18.90;97.20;;;;;;5079044;28;20291;-68
2023/05/25 04:30:55;;;;;;;25.40;20.87;;;19.00;97.20;;;;;;5056429;28;20206;-68
2023/05/25 04:33:55;;;;;;;24.37;20.77;;;19.00;97.30;;;;;;5039602;28;20217;-68
2023/05/25 04:36:28;;;;;;;21.30;19.07;;;19.10;97.30;;;;;;5062911;28;20251;-68
2023/05/25 04:38:56;;;;;;;21.43;18.87;;;19.10;97.30;;;;;;5059239;28;20318;-68
2023/05/25 04:41:24;;;;;;;24.97;19.63;;;19.20;97.30;;;;;;5049327;28;20210;-68
2023/05/25 04:43:56;;;;;;;21.40;19.10;;;19.20;97.20;;;;;;5077214;28;20224;-68
2023/05/25 04:46:39;;;;;;;21.00;18.80;;;19.30;97.20;;;;;;5026394;28;20309;-67
2023/05/25 04:49:12;;;;;;;23.73;19.10;;;19.30;97.10;;;;;;5082065;28;20536;-68
2023/05/25 04:51:39;;;;;;;21.53;18.87;;;19.30;97.00;;;;;;5063114;28;20209;-68
2023/05/25 04:54:06;;;;;;;19.67;17.60;;;19.30;97.00;;;;;;5055629;28;20252;-67
2023/05/25 04:56:33;;;;;;;19.73;17.33;;;19.30;96.90;;;;;;5050580;28;20205;-67
2023/05/25 04:59:03;;;;;;;23.10;16.63;;;19.40;96.90;;;;;;5063781;28;20253;-68
2023/05/25 05:01:33;;;;;;;20.33;17.47;;;19.40;96.90;;;;;;5087942;28;20200;-67
2023/05/25 05:04:01;;;;;;;17.70;15.83;;;19.40;96.80;;;;;;5089391;28;20205;-68
2023/05/25 05:06:29;;;;;;;17.70;15.87;;;19.40;96.70;;;;;;5058135;28;20619;-68
2023/05/25 05:08:56;;;;;;;17.83;15.57;;;19.40;96.80;;;;;;5054084;28;20223;-68
2023/05/25 05:11:23;;;;;;;21.90;17.03;;;19.40;96.70;;;;;;5043730;28;20310;-68
2023/05/25 05:13:52;;;;;;;19.20;16.00;;;19.40;96.70;;;;;;5056014;28;20198;-68
2023/05/25 05:16:19;;;;;;;20.37;16.23;;;19.40;96.70;;;;;;5054630;28;20244;-68
2023/05/25 05:18:47;;;;;;;18.87;16.43;;;19.40;96.80;;;;;;5062316;28;20209;-67
2023/05/25 05:21:14;;;;;;;19.50;15.20;;;19.40;96.80;;;;;;5048843;28;20225;-69
2023/05/25 05:23:45;;;;;;;18.63;16.53;;;19.40;96.80;;;;;;5055386;28;20204;-67
2023/05/25 05:26:13;;;;;;;18.93;14.87;;;19.40;96.90;;;;;;5067790;28;20563;-68
2023/05/25 05:28:41;;;;;;;19.40;16.00;;;19.50;96.90;;;;;;5060245;28;20667;-67
2023/05/25 05:31:08;;;;;;;19.80;14.93;;;19.50;97.00;;;;;;5056159;28;20202;-68
2023/05/25 05:33:35;;;;;;;15.80;13.90;;;19.50;97.00;;;;;;5092578;28;20704;-67
2023/05/25 05:36:03;;;;;;;16.13;13.30;;;19.60;97.10;;;;;;5058333;28;20202;-67
2023/05/25 05:38:31;;;;;;;18.13;13.43;;;19.60;97.10;;;;;;5061466;28;20269;-67
2023/05/25 05:40:58;;;;;;;14.43;12.93;;;19.60;97.10;;;;;;5056188;28;20219;-67
2023/05/25 05:43:26;;;;;;;18.47;13.27;;;19.70;97.10;;;;;;5055809;28;20220;-67
2023/05/25 05:45:53;;;;;;;17.30;12.03;;;19.70;97.20;;;;;;5059025;28;20213;-67
2023/05/25 05:48:20;;;;;;;15.03;12.07;;;19.80;97.20;;;;;;5070720;28;20728;-67
2023/05/25 05:50:48;;;;;;;17.73;13.00;;;19.90;97.10;;;;;;5055414;28;20591;-67
2023/05/25 05:53:16;;;;;;;18.07;12.57;;;19.90;97.10;;;;;;5073564;28;20206;-68
2023/05/25 05:55:43;;;;;;;19.37;12.87;;;20.00;96.90;;;;;;5064968;28;20554;-67
2023/05/25 05:58:12;;;;;;;15.70;11.70;;;20.10;96.80;;;;;;5091527;28;20202;-68
2023/05/25 06:00:39;;;;;;;13.03;11.57;;;20.10;96.60;;;;;;5059677;28;20286;-67
2023/05/25 06:03:06;;;;;;;17.97;12.00;;;20.10;96.40;;;;;;5058512;28;20195;-67
2023/05/25 06:05:34;;;;;;;13.47;10.40;;;20.10;96.40;;;;;;5067246;28;20695;-67
2023/05/25 06:08:02;;;;;;;11.33;10.20;;;20.10;96.40;;;;;;5052101;28;20285;-67
2023/05/25 06:10:33;;;;;;;12.57;10.47;;;20.10;96.50;;;;;;5054384;28;20259;-67
2023/05/25 06:13:00;;;;;;;27.10;10.83;;;20.20;96.40;;;;;;5061235;28;20218;-67
2023/05/25 06:15:27;;;;;;;13.47;10.87;;;20.10;96.40;;;;;;5088316;28;20313;-67
2023/05/25 06:17:57;;;;;;;16.40;10.97;;;20.10;96.30;;;;;;5058447;28;20232;-67
2023/05/25 06:20:25;;;;;;;13.10;10.17;;;20.20;96.40;;;;;;5063194;28;20256;-67
2023/05/25 06:22:52;;;;;;;11.37;10.23;;;20.20;96.50;;;;;;5062370;28;20658;-67
2023/05/25 06:25:19;;;;;;;15.60;11.17;;;20.30;96.60;;;;;;5083597;28;20209;-67
2023/05/25 06:27:47;;;;;;;10.93;9.77;;;20.30;96.50;;;;;;5072363;28;20310;-68
2023/05/25 06:30:14;;;;;;;14.53;10.10;;;20.40;96.40;;;;;;5051587;28;20300;-67
2023/05/25 06:32:42;;;;;;;12.67;9.37;;;20.40;96.20;;;;;;5066280;28;20221;-67
2023/05/25 06:35:13;;;;;;;13.73;9.63;;;20.40;95.90;;;;;;5066325;28;20202;-67
2023/05/25 06:37:40;;;;;;;11.60;9.40;;;20.50;96.00;;;;;;5063403;28;20205;-67
2023/05/25 06:40:09;;;;;;;11.00;9.90;;;20.50;95.90;;;;;;5064814;28;20201;-68
2023/05/25 06:42:36;;;;;;;11.20;9.43;;;20.60;95.90;;;;;;5061405;28;20198;-67
2023/05/25 06:45:05;;;;;;;12.40;9.53;;;20.70;95.90;;;;;;5062170;28;20209;-67
2023/05/25 06:47:32;;;;;;;10.30;9.30;;;20.80;95.80;;;;;;5051198;28;20230;-67
2023/05/25 06:49:59;;;;;;;11.73;9.03;;;20.90;95.90;;;;;;5063765;28;20208;-67
2023/05/25 06:52:30;;;;;;;13.97;9.63;;;21.00;95.50;;;;;;5044558;28;20209;-67
2023/05/25 06:54:57;;;;;;;10.63;9.60;;;21.00;95.00;;;;;;5057034;28;20267;-67
2023/05/25 06:57:24;;;;;;;12.33;9.87;;;21.00;95.00;;;;;;5060606;28;20194;-67
2023/05/25 06:59:51;;;;;;;11.20;9.83;;;21.10;95.30;;;;;;5063437;28;20550;-67
2023/05/25 07:02:19;;;;;;;14.23;9.50;;;21.20;95.30;;;;;;5055475;28;20198;-68
2023/05/25 07:04:46;;;;;;;12.40;9.40;;;21.30;95.30;;;;;;5054521;28;20509;-67
2023/05/25 07:07:14;;;;;;;12.93;9.23;;;21.50;95.20;;;;;;5060682;28;20225;-67
2023/05/25 07:09:41;;;;;;;10.37;9.27;;;21.50;94.90;;;;;;5059029;28;20213;-68
2023/05/25 07:12:09;;;;;;;11.77;8.07;;;21.60;94.50;;;;;;5049014;28;20609;-67
2023/05/25 07:14:37;;;;;;;13.63;8.23;;;21.70;94.30;;;;;;5055735;28;20240;-69
2023/05/25 07:17:04;;;;;;;11.53;7.67;;;21.80;94.00;;;;;;5059931;28;20199;-67
2023/05/25 07:19:31;;;;;;;9.20;8.03;;;21.80;93.10;;;;;;5060405;28;20210;-67
2023/05/25 07:21:58;;;;;;;12.00;7.67;;;21.80;93.00;;;;;;5059625;28;20539;-67
2023/05/25 07:24:25;;;;;;;11.83;7.60;;;21.90;92.40;;;;;;5058639;28;20260;-67
2023/05/25 07:26:52;;;;;;;9.53;7.90;;;21.90;92.30;;;;;;5055419;28;20203;-67
2023/05/25 07:29:19;;;;;;;10.03;7.80;;;21.90;92.30;;;;;;5060397;28;20217;-68
2023/05/25 07:31:46;;;;;;;10.70;8.80;;;22.00;92.20;;;;;;5054050;28;20201;-67
2023/05/25 07:34:14;;;;;;;9.67;8.37;;;22.00;92.30;;;;;;5057975;28;20535;-67
2023/05/25 07:36:41;;;;;;;10.40;7.83;;;22.00;92.40;;;;;;5056459;28;20714;-67
2023/05/25 07:39:10;;;;;;;13.37;8.33;;;22.00;92.60;;;;;;5051587;28;20203;-67
2023/05/25 07:41:37;;;;;;;9.00;7.97;;;22.00;92.50;;;;;;5052223;28;20598;-67
2023/05/25 07:44:04;;;;;;;9.87;8.57;;;22.00;92.50;;;;;;5057723;28;20630;-67
2023/05/25 07:46:31;;;;;;;8.93;8.03;;;22.00;92.30;;;;;;5058799;28;21052;-67
2023/05/25 07:48:58;;;;;;;9.23;7.03;;;22.10;92.20;;;;;;5057868;28;20309;-67
2023/05/25 07:51:28;;;;;;;7.77;6.97;;;22.00;92.30;;;;;;5061914;28;20615;-67
2023/05/25 07:53:57;;;;;;;8.67;7.50;;;22.10;92.30;;;;;;5054878;28;20365;-67
2023/05/25 07:56:25;;;;;;;7.77;6.40;;;22.10;91.90;;;;;;5054417;28;20194;-67
2023/05/25 07:58:52;;;;;;;10.53;7.10;;;22.00;91.50;;;;;;5090979;28;20269;-67
2023/05/25 08:01:19;;;;;;;8.83;5.77;;;21.90;91.50;;;;;;5057139;28;20667;-67
2023/05/25 08:03:46;;;;;;;8.87;6.80;;;21.90;91.60;;;;;;5058342;28;20199;-67
2023/05/25 08:06:16;;;;;;;8.67;6.17;;;21.90;91.50;;;;;;5072940;28;20218;-67
2023/05/25 08:08:43;;;;;;;9.77;6.20;;;21.80;91.40;;;;;;5057516;28;20224;-67
2023/05/25 08:11:10;;;;;;;7.87;6.63;;;21.80;91.30;;;;;;5045603;28;20203;-67
2023/05/25 08:13:38;;;;;;;9.90;6.07;;;21.80;91.20;;;;;;5059349;28;20252;-67
2023/05/25 08:16:05;;;;;;;6.10;5.50;;;21.80;91.30;;;;;;5055565;28;20292;-67
2023/05/25 08:18:32;;;;;;;7.87;5.53;;;21.80;90.90;;;;;;5056661;28;20256;-67
2023/05/25 08:20:59;;;;;;;8.87;6.00;;;21.90;91.10;;;;;;5079080;28;20588;-67
2023/05/25 08:23:27;;;;;;;8.20;5.67;;;22.00;90.90;;;;;;5060056;28;21321;-67
2023/05/25 08:25:54;;;;;;;6.10;5.50;;;22.20;90.70;;;;;;5058146;28;20231;-67
2023/05/25 08:28:21;;;;;;;9.30;5.87;;;22.30;90.40;;;;;;5056542;28;20221;-67
2023/05/25 08:30:48;;;;;;;9.37;5.33;;;22.40;89.80;;;;;;5054010;28;20204;-67
2023/05/25 08:33:15;;;;;;;7.43;5.27;;;22.40;90.00;;;;;;5056296;28;20195;-67
2023/05/25 08:35:42;;;;;;;5.17;4.67;;;22.50;89.50;;;;;;5052138;28;20210;-67
2023/05/25 08:38:10;;;;;;;11.53;4.90;;;22.50;88.10;;;;;;5056611;28;20203;-68
2023/05/25 08:40:41;;;;;;;5.47;4.50;;;22.40;87.20;;;;;;5056013;28;20206;-67
2023/05/25 08:43:08;;;;;;;6.67;4.97;;;22.50;87.50;;;;;;5056178;28;20230;-67
2023/05/25 08:45:35;;;;;;;6.37;4.97;;;22.60;88.00;;;;;;5059412;28;20210;-67
2023/05/25 08:48:13;;;;;;;8.43;4.37;;;22.70;87.60;;;;;;5061527;28;20235;-67
2023/05/25 08:51:05;;;;;;;6.87;5.20;;;22.80;85.20;;;;;;5065666;28;20214;-67
2023/05/25 08:53:37;;;;;;;6.03;5.43;;;22.80;85.20;;;;;;5056675;28;20207;-67
2023/05/25 08:56:29;;;;;;;8.33;5.20;;;22.80;85.40;;;;;;5060953;28;20236;-67
2023/05/25 08:59:12;;;;;;;6.67;5.00;;;22.80;85.90;;;;;;5057967;28;20190;-67
2023/05/25 09:01:44;;;;;;;6.77;5.03;;;22.80;86.00;;;;;;5060826;28;20241;-67
2023/05/25 09:04:13;;;;;;;7.67;5.37;;;22.80;86.00;;;;;;5054075;28;20281;-67
2023/05/25 09:06:40;;;;;;;6.03;5.43;;;22.70;85.90;;;;;;5055838;28;20621;-67
2023/05/25 09:09:08;;;;;;;7.00;4.33;;;22.70;85.90;;;;;;5062393;28;20250;-67
2023/05/25 09:11:35;;;;;;;6.70;4.23;;;22.60;86.40;;;;;;5054367;28;20546;-67
2023/05/25 09:14:10;;;;;;;6.13;4.03;;;22.70;87.10;;;;;;5063120;28;20197;-68
2023/05/25 09:16:37;;;;;;;5.10;4.20;;;22.80;86.70;;;;;;5067221;28;20190;-67
2023/05/25 09:19:04;;;;;;;8.23;3.90;;;23.00;86.10;;;;;;5058703;28;20543;-67
2023/05/25 09:21:31;;;;;;;4.30;3.60;;;23.10;85.80;;;;;;5055082;28;20202;-68
2023/05/25 09:24:00;;;;;;;5.93;4.10;;;23.30;83.90;;;;;;5071245;28;20260;-68
2023/05/25 09:26:27;;;;;;;4.17;3.67;;;23.50;82.90;;;;;;5057820;28;20652;-67
2023/05/25 09:28:54;;;;;;;5.27;3.50;;;23.50;81.90;;;;;;5060962;28;20214;-67
2023/05/25 09:31:23;;;;;;;4.70;3.60;;;23.50;81.80;;;;;;5053957;28;20548;-67
2023/05/25 09:33:54;;;;;;;4.33;3.80;;;23.50;82.10;;;;;;5058342;28;20195;-67
2023/05/25 09:36:21;;;;;;;4.67;3.63;;;23.60;81.70;;;;;;5057419;28;20672;-67
2023/05/25 09:38:52;;;;;;;10.53;4.63;;;23.50;81.50;;;;;;5062065;28;20555;-67
2023/05/25 09:41:20;;;;;;;5.77;4.13;;;23.50;79.60;;;;;;5059944;28;20225;-67
2023/05/25 09:43:47;;;;;;;5.57;3.80;;;23.50;80.50;;;;;;5067687;28;20197;-67
2023/05/25 09:46:37;;;;;;;6.10;4.57;;;23.30;80.90;;;;;;5054091;28;20214;-67
2023/05/25 09:49:07;;;;;;;6.47;4.57;;;23.20;81.10;;;;;;5054942;28;20218;-67
2023/05/25 09:51:35;;;;;;;6.67;5.57;;;23.00;82.20;;;;;;5054945;28;20219;-68
2023/05/25 09:54:07;;;;;;;5.40;4.53;;;22.90;84.50;;;;;;5064123;28;20202;-68
2023/05/25 09:56:35;;;;;;;8.30;5.40;;;23.00;85.50;;;;;;5055545;28;20246;-68
2023/05/25 09:59:02;;;;;;;10.60;5.70;;;23.10;85.50;;;;;;5061316;28;20234;-67
2023/05/25 10:01:32;;;;;;;6.67;5.23;;;23.00;86.60;;;;;;5063337;28;20260;-68
2023/05/25 10:04:00;;;;;;;5.47;4.30;;;23.30;88.00;;;;;;5059780;28;20201;-68
2023/05/25 10:06:32;;;;;;;6.90;5.00;;;23.60;86.10;;;;;;5060264;28;20209;-68
2023/05/25 10:09:00;;;;;;;10.83;5.47;;;23.90;85.30;;;;;;5058923;28;20221;-67
2023/05/25 10:11:28;;;;;;;7.13;4.30;;;24.20;84.80;;;;;;5062756;28;20821;-67
2023/05/25 10:13:57;;;;;;;5.07;4.57;;;24.40;84.50;;;;;;5053395;28;20211;-68
2023/05/25 10:16:28;;;;;;;7.03;4.23;;;24.60;84.20;;;;;;5055383;28;20260;-67
2023/05/25 10:19:02;;;;;;;5.90;4.50;;;24.90;84.80;;;;;;5057720;28;20627;-68
2023/05/25 10:21:30;;;;;;;7.40;4.53;;;25.20;84.60;;;;;;5054792;28;20215;-67
2023/05/25 10:24:05;;;;;;;5.67;4.47;;;25.40;82.60;;;;;;5063612;28;20203;-67
2023/05/25 10:26:39;;;;;;;6.83;4.67;;;25.60;83.00;;;;;;5053278;28;20208;-68
2023/05/25 10:29:08;;;;;;;5.23;4.77;;;25.70;80.70;;;;;;5062506;28;20224;-67
2023/05/25 10:31:36;;;;;;;5.00;4.50;;;25.90;81.60;;;;;;5063211;28;20220;-67
2023/05/25 10:34:03;;;;;;;7.97;4.93;;;26.00;80.50;;;;;;5058632;28;20273;-68
2023/05/25 10:36:33;;;;;;;7.13;5.17;;;26.20;79.50;;;;;;5060925;28;20260;-65
2023/05/25 10:39:01;;;;;;;9.00;5.37;;;26.20;78.50;;;;;;5055490;28;20209;-70
2023/05/25 10:41:29;;;;;;;7.40;5.57;;;26.30;79.40;;;;;;5060303;28;20857;-64
2023/05/25 10:43:56;;;;;;;7.20;5.10;;;26.40;77.30;;;;;;5054003;28;20222;-67
2023/05/25 10:46:23;;;;;;;9.20;5.93;;;26.30;76.10;;;;;;5058017;28;20231;-67
2023/05/25 10:48:51;;;;;;;7.23;5.70;;;26.20;77.30;;;;;;5057082;28;20301;-65
2023/05/25 10:51:19;;;;;;;9.70;6.63;;;26.20;77.80;;;;;;5054191;28;20249;-64
2023/05/25 10:53:58;;;;;;;7.03;5.93;;;26.30;78.40;;;;;;5051648;28;20214;-65
2023/05/25 10:56:25;;;;;;;10.43;6.13;;;26.30;78.50;;;;;;5056622;28;20629;-63
2023/05/25 10:58:52;;;;;;;7.63;6.50;;;26.50;78.40;;;;;;5058728;28;20236;-66
2023/05/25 11:01:19;;;;;;;8.10;6.47;;;26.60;77.40;;;;;;5057657;28;20542;-65
2023/05/25 11:04:14;;;;;;;7.10;6.33;;;26.70;78.40;;;;;;5056563;28;20257;-67
2023/05/25 11:06:44;;;;;;;8.10;5.57;;;26.70;77.50;;;;;;5058025;28;20241;-64
2023/05/25 11:09:25;;;;;;;6.40;5.70;;;26.80;77.20;;;;;;5060908;28;20310;-70
2023/05/25 11:11:54;;;;;;;7.30;5.90;;;26.90;77.80;;;;;;5054199;28;20197;-66
2023/05/25 11:14:30;;;;;;;6.40;5.73;;;27.00;78.10;;;;;;5057641;28;20265;-66
2023/05/25 11:17:11;;;;;;;7.80;6.17;;;27.10;78.20;;;;;;5060476;28;20205;-67
2023/05/25 11:19:49;;;;;;;6.77;5.70;;;27.20;78.40;;;;;;5057400;28;20199;-65
2023/05/25 11:22:20;;;;;;;6.90;6.20;;;27.20;75.40;;;;;;5052542;28;20240;-67
2023/05/25 11:24:47;;;;;;;6.63;5.93;;;27.20;75.90;;;;;;5059730;28;20263;-67
2023/05/25 11:27:14;;;;;;;9.53;6.03;;;27.20;75.30;;;;;;5060909;28;20505;-64
2023/05/25 11:29:42;;;;;;;6.47;5.23;;;27.20;76.10;;;;;;5059346;28;20218;-64
2023/05/25 11:32:13;;;;;;;8.53;5.57;;;27.30;76.20;;;;;;5057652;28;20256;-67
2023/05/25 11:34:45;;;;;;;6.93;5.67;;;27.50;75.00;;;;;;5059457;28;20195;-66
2023/05/25 11:37:16;;;;;;;10.17;6.60;;;27.50;73.10;;;;;;5058439;28;20217;-67
2023/05/25 11:39:50;;;;;;;7.83;6.40;;;27.50;73.10;;;;;;5058021;28;20703;-65
2023/05/25 11:42:21;;;;;;;7.00;6.40;;;27.60;73.50;;;;;;5054985;28;20193;-69
2023/05/25 11:44:49;;;;;;;7.43;6.43;;;27.60;73.00;;;;;;5056677;28;20222;-66
2023/05/25 11:47:21;;;;;;;8.80;6.43;;;27.60;73.40;;;;;;5052892;28;20285;-68
2023/05/25 11:49:48;;;;;;;9.20;6.43;;;27.70;73.00;;;;;;5053235;28;20236;-65
2023/05/25 11:52:17;;;;;;;8.40;6.40;;;27.70;74.00;;;;;;5058288;28;20205;-67
2023/05/25 11:54:45;;;;;;;9.83;6.30;;;27.60;73.30;;;;;;5062915;28;20232;-67
2023/05/25 11:57:19;;;;;;;11.07;5.07;;;27.40;73.50;;;;;;5053252;28;20620;-67
2023/05/25 11:59:48;;;;;;;9.63;5.17;;;27.30;73.90;;;;;;5056727;28;20198;-65
2023/05/25 12:02:16;;;;;;;6.80;5.47;;;27.40;71.20;;;;;;5055521;28;20672;-67
2023/05/25 12:04:52;;;;;;;5.63;5.10;;;27.50;72.70;;;;;;5055230;28;20263;-65
2023/05/25 12:07:20;;;;;;;5.67;5.00;;;27.70;72.80;;;;;;5053285;28;20210;-67
2023/05/25 12:09:47;;;;;;;6.20;4.53;;;27.70;69.30;;;;;;5053240;28;20205;-65
2023/05/25 12:12:14;;;;;;;5.97;5.17;;;27.50;70.20;;;;;;5055796;28;20197;-65
2023/05/25 12:14:50;;;;;;;5.43;4.93;;;27.30;69.90;;;;;;5047870;28;20253;-65
2023/05/25 12:17:20;;;;;;;4.83;4.23;;;27.00;70.00;;;;;;5048626;28;20218;-65
2023/05/25 12:19:47;;;;;;;4.53;4.13;;;26.70;69.80;;;;;;5056159;28;20546;-65
2023/05/25 12:22:15;;;;;;;6.27;3.97;;;26.50;70.40;;;;;;5061714;28;20237;-65
2023/05/25 12:24:42;;;;;;;7.43;4.67;;;26.30;71.00;;;;;;5061016;28;20614;-65
2023/05/25 12:27:19;;;;;;;5.47;3.83;;;26.30;71.40;;;;;;5059866;28;20194;-65
2023/05/25 12:29:47;;;;;;;5.87;4.50;;;26.40;71.30;;;;;;5060645;28;20293;-65
2023/05/25 12:32:14;;;;;;;5.03;4.40;;;26.50;71.60;;;;;;5060086;28;20198;-65
2023/05/25 12:34:42;;;;;;;6.30;4.10;;;26.60;73.60;;;;;;5057577;28;20194;-65
2023/05/25 12:37:21;;;;;;;4.93;4.37;;;26.80;71.90;;;;;;5061537;28;20190;-65
2023/05/25 12:39:49;;;;;;;6.57;4.57;;;27.00;71.70;;;;;;5067147;28;20505;-65
2023/05/25 12:42:17;;;;;;;4.60;4.10;;;27.20;71.40;;;;;;5047458;28;20199;-65
2023/05/25 12:44:45;;;;;;;5.20;3.90;;;27.50;70.90;;;;;;5051518;28;20212;-65
2023/05/25 12:47:21;;;;;;;5.93;4.17;;;27.60;69.80;;;;;;5058021;28;20213;-66